• Join FlightAware (Why Join?)
  • Login
  • US Flag 
01:30AM EST


 

Airport Tracker/Info


-or-


 

Live Flight TrackerFlight Track Log ✈ TMC440 ✈ 28-Aug-2013 ✈ KTEB - KILG

Flight Track Log - Related Links

Times and Time Zones

All times are in EDT time to prevent confusion due to time zone crossing. See the TMC440 flight status page for this flight to view local times or setup timezone preferences in your user account.

Time Position Orientation Groundspeed Altitude Reporting Facility
EDT Latitude Longitude Course Direction KTS MPH feet Rate Location/Type
05:20PM 40.8167 -74.1667 252° West 196 226 1,800  Level New York TRACON
05:21PM 40.8000 -74.2333 252° West 208 239 3,900 2,504 Climbing New York TRACON
05:22PM 40.7667 -74.3000 237° Southwest 225 259 6,600 1,600 Climbing New York TRACON
05:23PM 40.7333 -74.3833 242° Southwest 248 285 7,100 164 Climbing New York TRACON
05:30PM 40.5667 -75.1333 254° West 287 330 8,000 109 Climbing Philadelphia TRACON
05:31PM 40.5500 -75.2000 252° West 284 327 8,000 -412 Level Philadelphia TRACON
05:32PM 40.5333 -75.3000 258° West 275 316 7,300 -500 Descending Philadelphia TRACON
05:33PM 40.4833 -75.3500 217° Southwest 241 277 7,000 -200 Descending Philadelphia TRACON
05:34PM 40.4167 -75.4000 210° Southwest 262 302 6,900  Descending Philadelphia TRACON
05:35PM 40.3667 -75.4333 207° Southwest 270 311 7,000 50 Climbing Philadelphia TRACON
05:36PM 40.2833 -75.5000 211° Southwest 276 318 7,000  Level Philadelphia TRACON
05:37PM 40.2333 -75.5333 207° Southwest 276 318 7,000  Level Philadelphia TRACON
05:38PM 40.1667 -75.5833 210° Southwest 279 321 7,000  Level Philadelphia TRACON
05:39PM 40.0833 -75.6333 205° Southwest 281 323 7,000  Level Philadelphia TRACON
05:40PM 40.0167 -75.6667 201° Southwest 281 323 7,000 -810 Level Philadelphia TRACON
05:41PM 39.9500 -75.7167 210° Southwest 264 304 5,300 -1,524 Descending Philadelphia TRACON
05:42PM 39.8833 -75.7667 210° Southwest 257 296 3,800 -1,150 Descending Philadelphia TRACON
05:43PM 39.8167 -75.8000 201° Southwest 234 269 3,000 -400 Descending Philadelphia TRACON
05:44PM 39.7667 -75.8500 232° Southwest 241 277 3,000  Level Philadelphia TRACON
05:45PM 39.7167 -75.8667 194° South 201 231 3,000 -350 Level Philadelphia TRACON
05:46PM 39.6500 -75.8500 169° South 209 241 2,300 -500 Descending Philadelphia TRACON
05:47PM 39.6500 -75.7833 90° East 175 201 2,000 -238 Descending Philadelphia TRACON
05:48PM 39.6667 -75.7333 67° East 152 175 1,800 -476 Descending Philadelphia TRACON
05:49PM 39.6667 -75.6833 90° East 138 159 1,000 -700 Descending Philadelphia TRACON
05:50PM 39.6833 -75.6333 67° East 112 129 400 -600 Descending Philadelphia TRACON
05:52PM 39.6787 -75.6066 117° Southeast  Level Estimated